createdAt,value
2022-08-19T00:02:00.430Z,13.10
2022-08-19T00:04:35.851Z,11.35
2022-08-19T00:07:05.506Z,12.63
2022-08-19T00:09:33.800Z,12.73
2022-08-19T00:12:03.037Z,12.13
2022-08-19T00:14:32.878Z,12.35
2022-08-19T00:17:02.233Z,11.38
2022-08-19T00:19:33.033Z,12.55
2022-08-19T00:22:01.601Z,13.57
2022-08-19T00:24:30.177Z,11.93
2022-08-19T00:27:04.935Z,11.45
2022-08-19T00:29:52.473Z,12.68
2022-08-19T00:32:21.842Z,10.73
2022-08-19T00:34:54.327Z,13.05
2022-08-19T00:37:27.601Z,12.52
2022-08-19T00:39:56.659Z,11.98
2022-08-19T00:42:26.006Z,11.15
2022-08-19T00:44:54.035Z,12.13
2022-08-19T00:47:22.497Z,12.38
2022-08-19T00:49:57.992Z,12.57
2022-08-19T00:52:31.824Z,12.27
2022-08-19T00:55:02.322Z,12.27
2022-08-19T00:57:36.648Z,11.77
2022-08-19T01:00:11.257Z,12.05
2022-08-19T01:02:39.966Z,11.05
2022-08-19T01:05:16.393Z,11.45
2022-08-19T01:07:44.776Z,11.50
2022-08-19T01:10:17.419Z,11.35
2022-08-19T01:12:47.131Z,13.18
2022-08-19T01:15:20.457Z,10.70
2022-08-19T01:17:49.499Z,12.52
2022-08-19T01:20:23.369Z,12.57
2022-08-19T01:22:56.044Z,12.13
2022-08-19T01:25:29.560Z,11.07
2022-08-19T01:28:06.413Z,11.85
2022-08-19T01:30:39.121Z,11.77
2022-08-19T01:33:12.568Z,12.38
2022-08-19T01:35:41.149Z,12.93
2022-08-19T01:38:22.742Z,13.13
2022-08-19T01:40:52.897Z,12.02
2022-08-19T01:43:21.750Z,12.05
2022-08-19T01:45:49.873Z,12.05
2022-08-19T01:48:18.028Z,12.10
2022-08-19T01:50:46.172Z,13.20
2022-08-19T01:53:15.685Z,11.18
2022-08-19T01:55:46.251Z,11.73
2022-08-19T01:58:23.041Z,11.98
2022-08-19T02:00:51.301Z,12.77
2022-08-19T02:03:19.586Z,13.00
2022-08-19T02:05:47.897Z,11.85
2022-08-19T02:08:17.325Z,12.82
2022-08-19T02:10:46.368Z,12.00
2022-08-19T02:13:15.718Z,12.43
2022-08-19T02:15:49.344Z,13.13
2022-08-19T02:18:17.549Z,11.23
2022-08-19T02:20:47.998Z,11.88
2022-08-19T02:23:19.107Z,12.05
2022-08-19T02:25:49.603Z,11.13
2022-08-19T02:28:19.101Z,11.93
2022-08-19T02:30:49.030Z,12.77
2022-08-19T02:33:18.042Z,11.55
2022-08-19T02:35:47.578Z,11.98
2022-08-19T02:38:27.908Z,12.15
2022-08-19T02:41:00.177Z,13.20
2022-08-19T02:43:33.894Z,11.63
2022-08-19T02:46:04.173Z,12.70
2022-08-19T02:48:33.782Z,12.50
2022-08-19T02:51:02.012Z,13.05
2022-08-19T02:53:31.831Z,11.82
2022-08-19T02:56:00.167Z,13.07
2022-08-19T02:58:28.715Z,12.32
2022-08-19T03:00:58.987Z,12.27
2022-08-19T03:03:27.999Z,12.65
2022-08-19T03:06:11.224Z,11.73
2022-08-19T03:08:42.796Z,12.18
2022-08-19T03:11:16.765Z,11.73
2022-08-19T03:13:45.220Z,11.52
2022-08-19T03:16:14.379Z,12.68
2022-08-19T03:18:42.524Z,11.20
2022-08-19T03:21:12.349Z,11.77
2022-08-19T03:23:42.285Z,10.88
2022-08-19T03:26:15.951Z,11.82
2022-08-19T03:28:49.458Z,12.32
2022-08-19T03:31:44.762Z,11.65
2022-08-19T03:34:19.773Z,12.20
2022-08-19T03:36:49.419Z,12.38
2022-08-19T03:39:19.446Z,13.10
2022-08-19T03:41:49.982Z,11.00
2022-08-19T03:44:39.535Z,11.48
2022-08-19T03:47:08.537Z,11.52
2022-08-19T03:49:37.560Z,12.27
2022-08-19T03:52:08.692Z,13.43
2022-08-19T03:54:39.571Z,12.63
2022-08-19T03:57:10.047Z,11.07
2022-08-19T03:59:40.111Z,11.48
2022-08-19T04:02:12.455Z,11.20
2022-08-19T04:04:45.498Z,10.50
2022-08-19T04:07:17.124Z,11.10
2022-08-19T04:09:46.675Z,12.13
2022-08-19T04:12:15.867Z,12.70
2022-08-19T04:14:44.001Z,12.95
2022-08-19T04:17:12.731Z,12.23
2022-08-19T04:19:42.140Z,12.45
2022-08-19T04:22:12.159Z,11.50
2022-08-19T04:24:40.338Z,10.65
2022-08-19T04:27:10.017Z,11.40
2022-08-19T04:29:40.430Z,11.70
2022-08-19T04:32:09.918Z,12.07
2022-08-19T04:35:02.391Z,11.00
2022-08-19T04:37:34.916Z,13.18
2022-08-19T04:40:25.291Z,12.27
2022-08-19T04:42:55.358Z,11.13
2022-08-19T04:45:24.061Z,12.18
2022-08-19T04:48:19.657Z,11.25
2022-08-19T04:50:47.517Z,11.13
2022-08-19T04:53:16.212Z,10.98
2022-08-19T04:55:45.133Z,12.50
2022-08-19T04:58:14.612Z,11.75
2022-08-19T05:00:44.471Z,11.55
2022-08-19T05:03:12.633Z,11.38
2022-08-19T05:05:45.126Z,10.20
2022-08-19T05:08:15.384Z,9.73
2022-08-19T05:10:44.476Z,11.40
2022-08-19T05:13:13.947Z,9.80
2022-08-19T05:15:42.333Z,8.57
2022-08-19T05:18:33.884Z,9.98
2022-08-19T05:21:25.377Z,8.32
2022-08-19T05:23:53.840Z,8.43
2022-08-19T05:26:22.114Z,8.48
2022-08-19T05:28:54.593Z,11.23
2022-08-19T05:31:24.053Z,9.50
2022-08-19T05:33:52.177Z,7.70
2022-08-19T05:36:20.929Z,8.73
2022-08-19T05:38:50.943Z,8.43
2022-08-19T05:41:19.284Z,9.00
2022-08-19T05:43:47.501Z,8.82
2022-08-19T05:46:27.638Z,6.80
2022-08-19T05:48:57.391Z,7.38
2022-08-19T05:51:28.982Z,8.07
2022-08-19T05:53:57.436Z,7.82
2022-08-19T05:56:25.929Z,7.93
2022-08-19T05:58:55.158Z,7.47
2022-08-19T06:01:24.737Z,7.88
2022-08-19T06:03:52.904Z,6.72
2022-08-19T06:06:21.880Z,7.55
2022-08-19T06:08:51.840Z,7.10
2022-08-19T06:11:26.340Z,7.20
2022-08-19T06:13:59.850Z,7.82
2022-08-19T06:16:31.181Z,8.80
2022-08-19T06:19:02.009Z,8.15
2022-08-19T06:21:32.067Z,6.72
2022-08-19T06:24:01.142Z,6.63
2022-08-19T06:26:29.504Z,6.18
2022-08-19T06:28:58.072Z,6.05
2022-08-19T06:31:34.695Z,7.22
2022-08-19T06:34:05.940Z,5.95
2022-08-19T06:36:38.183Z,6.65
2022-08-19T06:39:12.260Z,6.30
2022-08-19T06:41:48.783Z,6.28
2022-08-19T06:44:21.388Z,7.07
2022-08-19T06:46:54.682Z,7.20
2022-08-19T06:49:23.786Z,6.47
2022-08-19T06:51:52.567Z,5.63
2022-08-19T06:54:21.504Z,6.70
2022-08-19T06:56:49.770Z,6.68
2022-08-19T06:59:21.198Z,7.28
2022-08-19T07:01:54.509Z,5.32
2022-08-19T07:04:25.158Z,7.40
2022-08-19T07:07:01.136Z,7.47
2022-08-19T07:09:55.378Z,7.82
2022-08-19T07:12:30.432Z,7.78
2022-08-19T07:14:59.925Z,6.82
2022-08-19T07:17:30.442Z,8.13
2022-08-19T07:20:05.197Z,8.80
2022-08-19T07:22:35.841Z,8.15
2022-08-19T07:25:06.057Z,7.93
2022-08-19T07:27:34.880Z,7.03
2022-08-19T07:30:03.284Z,8.38
2022-08-19T07:32:32.922Z,7.40
2022-08-19T07:35:04.200Z,8.98
2022-08-19T07:37:33.512Z,8.15
2022-08-19T07:40:02.629Z,8.05
2022-08-19T07:42:31.504Z,9.18
2022-08-19T07:45:00.462Z,8.10
2022-08-19T07:47:49.020Z,8.30
2022-08-19T07:50:21.078Z,7.35
2022-08-19T07:52:50.798Z,9.30
2022-08-19T07:55:42.295Z,8.25
2022-08-19T07:58:15.076Z,7.63
2022-08-19T08:00:44.398Z,10.35
2022-08-19T08:03:13.398Z,9.75
2022-08-19T08:06:00.324Z,8.88
2022-08-19T08:08:48.443Z,8.88
2022-08-19T08:11:20.537Z,9.38
2022-08-19T08:14:01.347Z,8.57
2022-08-19T08:16:35.695Z,9.90
2022-08-19T08:19:14.715Z,9.43
2022-08-19T08:21:57.271Z,8.10
2022-08-19T08:24:28.717Z,9.32
2022-08-19T08:26:58.638Z,9.07
2022-08-19T08:29:35.003Z,10.00
2022-08-19T08:32:14.907Z,7.82
2022-08-19T08:34:43.295Z,7.88
2022-08-19T08:37:12.708Z,9.10
2022-08-19T08:39:44.414Z,9.93
2022-08-19T08:42:27.180Z,9.73
2022-08-19T08:45:02.370Z,8.77
2022-08-19T08:47:40.938Z,7.80
2022-08-19T08:50:21.947Z,8.00
2022-08-19T08:53:00.164Z,8.48
2022-08-19T08:55:36.672Z,9.35
2022-08-19T08:58:09.736Z,9.02
2022-08-19T09:00:42.867Z,8.25
2022-08-19T09:03:20.253Z,8.82
2022-08-19T09:06:03.492Z,8.57
2022-08-19T09:08:47.349Z,9.15
2022-08-19T09:11:42.068Z,10.65
2022-08-19T09:14:49.821Z,8.68
2022-08-19T09:17:17.897Z,8.23
2022-08-19T09:19:57.346Z,7.32
2022-08-19T09:22:27.894Z,7.53
2022-08-19T09:24:58.404Z,8.30
2022-08-19T09:27:42.086Z,9.40
2022-08-19T09:30:16.617Z,7.05
2022-08-19T09:32:46.201Z,7.38
2022-08-19T09:35:16.244Z,7.32
2022-08-19T09:37:45.377Z,6.85
2022-08-19T09:40:15.586Z,6.57
2022-08-19T09:42:50.103Z,7.78
2022-08-19T09:45:23.082Z,5.32
2022-08-19T09:47:55.069Z,6.28
2022-08-19T09:50:25.577Z,5.65
2022-08-19T09:52:58.071Z,6.22
2022-08-19T09:55:31.631Z,5.85
2022-08-19T09:58:02.927Z,4.82
2022-08-19T10:00:32.415Z,6.28
2022-08-19T10:03:01.290Z,5.55
2022-08-19T10:05:48.736Z,4.90
2022-08-19T10:08:20.677Z,5.80
2022-08-19T10:10:51.548Z,6.32
2022-08-19T10:13:25.851Z,6.22
2022-08-19T10:15:56.844Z,7.70
2022-08-19T10:18:27.218Z,6.35
2022-08-19T10:21:09.407Z,6.97
2022-08-19T10:23:46.067Z,6.30
2022-08-19T10:26:19.272Z,6.55
2022-08-19T10:28:47.552Z,5.90
2022-08-19T10:31:22.272Z,5.45
2022-08-19T10:34:17.565Z,3.75
2022-08-19T10:36:56.714Z,4.28
2022-08-19T10:39:32.553Z,5.18
2022-08-19T10:42:14.156Z,5.15
2022-08-19T10:44:43.245Z,4.78
2022-08-19T10:47:17.929Z,5.68
2022-08-19T10:50:13.225Z,5.95
2022-08-19T10:52:49.282Z,5.50
2022-08-19T10:55:39.053Z,5.82
2022-08-19T10:58:14.260Z,5.30
2022-08-19T11:00:43.930Z,5.18
2022-08-19T11:03:12.231Z,4.22
2022-08-19T11:05:41.820Z,4.57
2022-08-19T11:08:23.322Z,5.15
2022-08-19T11:11:00.120Z,5.22
2022-08-19T11:16:07.351Z,4.63
2022-08-19T11:18:39.472Z,4.40
2022-08-19T11:21:14.047Z,4.40
2022-08-19T11:23:43.216Z,3.70
2022-08-19T11:26:11.942Z,4.53
2022-08-19T11:28:41.548Z,4.20
2022-08-19T11:31:13.957Z,3.75
2022-08-19T11:33:47.764Z,3.00
2022-08-19T11:36:17.390Z,3.40
2022-08-19T11:38:46.451Z,3.75
2022-08-19T11:41:14.509Z,3.72
2022-08-19T11:43:44.120Z,3.08
2022-08-19T11:46:15.505Z,2.80
2022-08-19T11:48:44.052Z,3.55
2022-08-19T11:51:17.345Z,4.07
2022-08-19T11:53:45.522Z,3.30
2022-08-19T11:56:14.436Z,3.20
2022-08-19T11:58:44.013Z,3.35
2022-08-19T12:01:16.437Z,3.42
2022-08-19T12:03:45.908Z,2.90
2022-08-19T12:06:19.812Z,2.38
2022-08-19T12:08:48.430Z,2.28
2022-08-19T12:11:17.475Z,2.50
2022-08-19T12:13:47.208Z,2.28
2022-08-19T12:16:19.216Z,2.65
2022-08-19T12:18:48.997Z,2.58
2022-08-19T12:21:22.076Z,2.22
2022-08-19T12:23:55.667Z,2.70
2022-08-19T12:26:24.733Z,2.15
2022-08-19T12:28:55.422Z,1.88
2022-08-19T12:31:23.744Z,2.60
2022-08-19T12:33:53.352Z,2.70
2022-08-19T12:36:22.903Z,2.38
2022-08-19T12:38:51.358Z,3.15
2022-08-19T12:41:22.129Z,2.40
2022-08-19T12:43:51.731Z,1.52
2022-08-19T12:46:22.255Z,0.85
2022-08-19T12:48:53.320Z,1.67
2022-08-19T12:51:23.815Z,1.52
2022-08-19T12:53:51.850Z,2.03
2022-08-19T12:56:23.211Z,1.92
2022-08-19T12:58:52.885Z,1.95
2022-08-19T13:01:23.517Z,1.98
2022-08-19T13:03:54.093Z,2.35
2022-08-19T13:06:22.579Z,2.50
2022-08-19T13:08:50.662Z,2.35
2022-08-19T13:11:21.700Z,2.95
2022-08-19T13:13:52.491Z,3.67
2022-08-19T13:16:22.923Z,3.45
2022-08-19T13:18:52.930Z,3.53
2022-08-19T13:21:23.861Z,3.85
2022-08-19T13:23:53.481Z,4.70
2022-08-19T13:26:22.658Z,4.28
2022-08-19T13:29:08.517Z,3.47
2022-08-19T13:31:59.782Z,4.15
2022-08-19T13:34:33.982Z,4.45
2022-08-19T13:37:04.163Z,4.57
2022-08-19T13:39:33.579Z,4.55
2022-08-19T13:42:03.206Z,4.57
2022-08-19T13:44:31.854Z,4.38
2022-08-19T13:47:09.180Z,4.07
2022-08-19T13:49:37.991Z,3.67
2022-08-19T13:52:07.563Z,4.00
2022-08-19T13:54:35.722Z,3.40
2022-08-19T13:57:03.813Z,3.70
2022-08-19T13:59:32.729Z,3.30
2022-08-19T14:02:07.332Z,3.72
2022-08-19T14:04:35.463Z,3.88
2022-08-19T14:07:04.298Z,3.78
2022-08-19T14:09:32.862Z,3.10
2022-08-19T14:12:00.918Z,3.45
2022-08-19T14:14:30.044Z,3.28
2022-08-19T14:16:58.120Z,3.42
2022-08-19T14:19:30.059Z,2.75
2022-08-19T14:21:59.105Z,2.55
2022-08-19T14:24:27.457Z,2.53
2022-08-19T14:26:55.750Z,2.95
2022-08-19T14:29:23.800Z,1.77
2022-08-19T14:31:51.899Z,1.80
2022-08-19T14:34:20.188Z,1.88
2022-08-19T14:36:50.003Z,1.83
2022-08-19T14:39:18.176Z,1.40
2022-08-19T14:41:46.701Z,1.15
2022-08-19T14:44:15.015Z,1.13
2022-08-19T14:46:46.509Z,1.25
2022-08-19T14:49:18.915Z,1.15
2022-08-19T14:51:47.926Z,1.10
2022-08-19T14:54:17.347Z,0.75
2022-08-19T14:56:45.931Z,0.50
2022-08-19T14:59:14.232Z,1.27
2022-08-19T15:01:42.494Z,0.52
2022-08-19T15:04:10.835Z,1.05
2022-08-19T15:06:39.084Z,1.10
2022-08-19T15:09:07.583Z,1.23
2022-08-19T15:11:38.080Z,1.15
2022-08-19T15:14:07.847Z,1.13
2022-08-19T15:16:36.375Z,1.23
2022-08-19T15:19:04.706Z,1.30
2022-08-19T15:21:33.638Z,1.17
2022-08-19T15:24:02.858Z,1.00
2022-08-19T15:26:33.177Z,0.60
2022-08-19T15:29:04.061Z,0.60
2022-08-19T15:31:38.315Z,0.98
2022-08-19T15:34:07.787Z,0.30
2022-08-19T15:36:36.813Z,0.63
2022-08-19T15:39:07.241Z,0.43
2022-08-19T15:41:36.982Z,0.32
2022-08-19T15:44:11.962Z,0.28
2022-08-19T15:46:43.203Z,0.30
2022-08-19T15:49:13.282Z,0.68
2022-08-19T15:51:44.058Z,0.30
2022-08-19T15:54:16.586Z,0.20
2022-08-19T15:57:02.987Z,0.30
2022-08-19T15:59:51.459Z,0.43
2022-08-19T16:02:40.100Z,0.30
2022-08-19T16:05:30.625Z,0.40
2022-08-19T16:07:59.130Z,0.30
2022-08-19T16:10:29.252Z,0.30
2022-08-19T16:12:59.407Z,0.65
2022-08-19T16:15:31.967Z,0.38
2022-08-19T16:18:02.265Z,0.20
2022-08-19T16:20:31.234Z,0.43
2022-08-19T16:23:05.164Z,0.40
2022-08-19T16:25:33.919Z,0.30
2022-08-19T16:28:07.898Z,0.28
2022-08-19T16:30:41.888Z,0.30
2022-08-19T16:33:11.021Z,0.30
2022-08-19T16:35:39.375Z,0.20
2022-08-19T16:38:07.859Z,0.30
2022-08-19T16:40:37.016Z,0.30
2022-08-19T16:43:09.712Z,0.43
2022-08-19T16:45:39.119Z,0.20
2022-08-19T16:48:12.124Z,0.25
2022-08-19T16:50:49.275Z,0.28
2022-08-19T16:53:20.547Z,0.22
2022-08-19T16:55:50.771Z,0.30
2022-08-19T16:58:19.421Z,0.30
2022-08-19T17:00:50.200Z,0.43
2022-08-19T17:03:19.884Z,0.50
2022-08-19T17:06:05.003Z,0.30
2022-08-19T17:08:48.594Z,0.30
2022-08-19T17:11:18.910Z,0.20
2022-08-19T17:13:49.346Z,0.22
2022-08-19T17:16:22.002Z,0.47
2022-08-19T17:18:52.271Z,0.30
2022-08-19T17:21:21.059Z,0.35
2022-08-19T17:23:49.723Z,0.22
2022-08-19T17:26:19.342Z,0.32
2022-08-19T17:28:53.502Z,0.20
2022-08-19T17:31:27.293Z,0.20
2022-08-19T17:33:56.316Z,0.28
2022-08-19T17:36:28.040Z,0.20
2022-08-19T17:38:58.369Z,0.20
2022-08-19T17:41:30.387Z,0.40
2022-08-19T17:43:59.143Z,0.15
2022-08-19T17:46:30.139Z,0.20
2022-08-19T17:48:58.730Z,0.20
2022-08-19T17:51:43.332Z,0.25
2022-08-19T17:54:14.742Z,0.22
2022-08-19T17:56:43.892Z,0.20
2022-08-19T17:59:14.030Z,0.30
2022-08-19T18:01:53.199Z,0.30
2022-08-19T18:04:24.024Z,0.20
2022-08-19T18:06:54.356Z,0.32
2022-08-19T18:09:26.520Z,0.30
2022-08-19T18:11:56.766Z,0.20
2022-08-19T18:14:33.818Z,0.20
2022-08-19T18:17:09.514Z,0.10
2022-08-19T18:19:41.174Z,11.38
2022-08-19T18:22:12.616Z,22.80
2022-08-19T18:24:42.226Z,2.45
2022-08-19T18:27:10.928Z,0.40
2022-08-19T18:29:40.174Z,0.30
2022-08-19T18:32:13.227Z,0.30
2022-08-19T18:34:43.034Z,0.52
2022-08-19T18:37:11.716Z,1.05
2022-08-19T18:39:57.797Z,0.30
2022-08-19T18:42:44.437Z,4.25
2022-08-19T18:45:30.976Z,0.70
2022-08-19T18:48:32.794Z,0.38
2022-08-19T18:51:02.982Z,1.40
2022-08-19T18:53:34.576Z,0.95
2022-08-19T18:56:02.923Z,0.50
2022-08-19T18:58:34.106Z,0.60
2022-08-19T19:01:10.730Z,0.40
2022-08-19T19:06:11.073Z,0.60
2022-08-19T19:08:41.310Z,0.45
2022-08-19T19:11:10.360Z,0.40
2022-08-19T19:13:40.447Z,0.63
2022-08-19T19:16:12.352Z,0.70
2022-08-19T19:18:42.524Z,0.70
2022-08-19T19:21:12.165Z,0.80
2022-08-19T19:23:42.405Z,0.70
2022-08-19T19:26:11.525Z,0.40
2022-08-19T19:28:47.114Z,0.60
2022-08-19T19:31:19.531Z,0.77
2022-08-19T19:33:49.364Z,0.73
2022-08-19T19:36:18.204Z,0.70
2022-08-19T19:38:48.909Z,0.70
2022-08-19T19:41:21.154Z,1.08
2022-08-19T19:43:59.865Z,0.73
2022-08-19T19:46:39.958Z,1.83
2022-08-19T19:49:09.720Z,0.80
2022-08-19T19:51:39.497Z,0.88
2022-08-19T19:54:13.634Z,0.82
2022-08-19T19:56:45.515Z,0.90
2022-08-19T19:59:13.857Z,0.98
2022-08-19T20:01:46.089Z,1.67
2022-08-19T20:04:18.597Z,0.88
2022-08-19T20:06:47.831Z,1.20
2022-08-19T20:09:19.649Z,1.70
2022-08-19T20:11:53.556Z,1.52
2022-08-19T20:14:32.470Z,1.10
2022-08-19T20:17:01.431Z,1.30
2022-08-19T20:19:37.142Z,0.90
2022-08-19T20:22:06.745Z,1.33
2022-08-19T20:24:37.197Z,1.38
2022-08-19T20:27:06.800Z,1.30
2022-08-19T20:29:39.124Z,1.10
2022-08-19T20:32:10.955Z,1.30
2022-08-19T20:34:41.405Z,1.40
2022-08-19T20:37:09.828Z,2.28
2022-08-19T20:39:38.450Z,1.58
2022-08-19T20:42:07.125Z,1.13
2022-08-19T20:44:35.469Z,1.23
2022-08-19T20:47:04.207Z,1.50
2022-08-19T20:49:32.856Z,1.48
2022-08-19T20:52:03.740Z,2.10
2022-08-19T20:54:32.107Z,1.55
2022-08-19T20:57:00.522Z,1.48
2022-08-19T20:59:28.649Z,1.83
2022-08-19T21:01:57.553Z,1.50
2022-08-19T21:04:26.701Z,1.00
2022-08-19T21:06:55.032Z,1.27
2022-08-19T21:09:24.488Z,1.52
2022-08-19T21:11:53.335Z,1.33
2022-08-19T21:14:22.620Z,1.50
2022-08-19T21:16:51.077Z,1.55
2022-08-19T21:19:23.761Z,1.10
2022-08-19T21:21:52.433Z,1.65
2022-08-19T21:24:20.509Z,1.90
2022-08-19T21:26:51.482Z,1.58
2022-08-19T21:29:20.208Z,1.48
2022-08-19T21:31:49.002Z,1.85
2022-08-19T21:34:18.516Z,1.50
2022-08-19T21:36:46.621Z,1.75
2022-08-19T21:39:14.687Z,1.58
2022-08-19T21:41:43.764Z,1.85
2022-08-19T21:44:13.385Z,2.22
2022-08-19T21:46:41.629Z,1.88
2022-08-19T21:49:09.697Z,1.73
2022-08-19T21:51:38.386Z,2.33
2022-08-19T21:54:06.696Z,2.13
2022-08-19T21:56:35.041Z,2.53
2022-08-19T21:59:03.135Z,1.95
2022-08-19T22:01:32.557Z,1.67
2022-08-19T22:04:00.834Z,1.88
2022-08-19T22:06:28.918Z,1.50
2022-08-19T22:08:57.171Z,1.20
2022-08-19T22:11:26.647Z,1.60
2022-08-19T22:13:56.476Z,1.77
2022-08-19T22:16:25.658Z,2.25
2022-08-19T22:18:55.089Z,1.90
2022-08-19T22:21:40.133Z,2.00
2022-08-19T22:24:10.382Z,1.98
2022-08-19T22:26:38.454Z,1.65
2022-08-19T22:29:07.461Z,1.98
2022-08-19T22:31:37.466Z,1.60
2022-08-19T22:34:07.611Z,1.88
2022-08-19T22:36:35.747Z,1.63
2022-08-19T22:39:04.927Z,1.60
2022-08-19T22:41:33.669Z,1.70
2022-08-19T22:44:01.991Z,1.73
2022-08-19T22:46:33.625Z,1.50
2022-08-19T22:49:01.834Z,1.30
2022-08-19T22:51:48.903Z,1.38
2022-08-19T22:54:17.345Z,1.30
2022-08-19T22:56:45.522Z,1.15
2022-08-19T22:59:13.552Z,0.68
2022-08-19T23:01:42.047Z,1.00
2022-08-19T23:04:10.653Z,0.70
2022-08-19T23:06:42.198Z,0.50
2022-08-19T23:09:11.356Z,0.22
2022-08-19T23:11:45.891Z,0.15
2022-08-19T23:14:16.135Z,0.20
2022-08-19T23:16:50.490Z,0.32
2022-08-19T23:19:20.212Z,0.20
2022-08-19T23:21:50.455Z,0.25
2022-08-19T23:24:18.529Z,0.60
2022-08-19T23:27:00.759Z,0.38
2022-08-19T23:29:46.537Z,0.43
2022-08-19T23:32:17.045Z,0.50
2022-08-19T23:34:45.524Z,0.45
2022-08-19T23:37:15.243Z,0.30
2022-08-19T23:39:43.539Z,0.57
2022-08-19T23:42:14.200Z,0.90
2022-08-19T23:44:52.150Z,0.40
2022-08-19T23:47:21.983Z,0.77
2022-08-19T23:49:50.701Z,0.70
2022-08-19T23:52:21.125Z,0.50
2022-08-19T23:54:49.393Z,0.50
2022-08-19T23:57:17.465Z,0.82
2022-08-19T23:59:46.208Z,0.55
